sensor_id;sensor_type;location;lat;lon;timestamp;temperature;humidity
23562;DHT22;11959;49.418;8.728;2023-11-19T00:01:23;9.30;99.90
23562;DHT22;11959;49.418;8.728;2023-11-19T00:03:48;9.30;99.90
23562;DHT22;11959;49.418;8.728;2023-11-19T00:06:14;9.30;99.90
23562;DHT22;11959;49.418;8.728;2023-11-19T00:08:42;9.40;99.90
23562;DHT22;11959;49.418;8.728;2023-11-19T00:11:09;9.40;99.90
23562;DHT22;11959;49.418;8.728;2023-11-19T00:13:34;9.40;99.90
23562;DHT22;11959;49.418;8.728;2023-11-19T00:16:00;9.40;99.90
23562;DHT22;11959;49.418;8.728;2023-11-19T00:18:26;9.40;99.90
23562;DHT22;11959;49.418;8.728;2023-11-19T00:20:51;9.40;99.90
23562;DHT22;11959;49.418;8.728;2023-11-19T00:23:17;9.40;99.90
23562;DHT22;11959;49.418;8.728;2023-11-19T00:25:42;9.40;99.90
23562;DHT22;11959;49.418;8.728;2023-11-19T00:28:08;9.40;99.90
23562;DHT22;11959;49.418;8.728;2023-11-19T00:30:34;9.50;99.90
23562;DHT22;11959;49.418;8.728;2023-11-19T00:32:59;9.50;99.90
23562;DHT22;11959;49.418;8.728;2023-11-19T00:35:26;9.40;99.90
23562;DHT22;11959;49.418;8.728;2023-11-19T00:37:52;9.40;99.90
23562;DHT22;11959;49.418;8.728;2023-11-19T00:40:19;9.40;99.90
23562;DHT22;11959;49.418;8.728;2023-11-19T00:42:48;9.40;99.90
23562;DHT22;11959;49.418;8.728;2023-11-19T00:45:14;9.40;99.90
23562;DHT22;11959;49.418;8.728;2023-11-19T00:47:39;9.50;99.90
23562;DHT22;11959;49.418;8.728;2023-11-19T00:50:06;9.50;99.90
23562;DHT22;11959;49.418;8.728;2023-11-19T00:52:33;9.60;99.90
23562;DHT22;11959;49.418;8.728;2023-11-19T00:54:58;9.50;99.90
23562;DHT22;11959;49.418;8.728;2023-11-19T00:57:24;9.60;99.90
23562;DHT22;11959;49.418;8.728;2023-11-19T00:59:51;9.60;99.90
23562;DHT22;11959;49.418;8.728;2023-11-19T01:02:17;9.60;99.90
23562;DHT22;11959;49.418;8.728;2023-11-19T01:04:43;9.60;99.90
23562;DHT22;11959;49.418;8.728;2023-11-19T01:07:09;9.60;99.90
23562;DHT22;11959;49.418;8.728;2023-11-19T01:09:38;9.60;99.90
23562;DHT22;11959;49.418;8.728;2023-11-19T01:12:04;9.70;99.90
23562;DHT22;11959;49.418;8.728;2023-11-19T01:14:30;9.70;99.90
23562;DHT22;11959;49.418;8.728;2023-11-19T01:16:56;9.70;99.90
23562;DHT22;11959;49.418;8.728;2023-11-19T01:19:22;9.70;99.90
23562;DHT22;11959;49.418;8.728;2023-11-19T01:21:51;9.70;99.90
23562;DHT22;11959;49.418;8.728;2023-11-19T01:24:17;9.70;99.90
23562;DHT22;11959;49.418;8.728;2023-11-19T01:26:43;9.70;99.90
23562;DHT22;11959;49.418;8.728;2023-11-19T01:29:11;9.70;99.90
23562;DHT22;11959;49.418;8.728;2023-11-19T01:31:42;9.70;99.90
23562;DHT22;11959;49.418;8.728;2023-11-19T01:34:08;9.70;99.90
23562;DHT22;11959;49.418;8.728;2023-11-19T01:36:35;9.70;99.90
23562;DHT22;11959;49.418;8.728;2023-11-19T01:39:00;9.80;99.90
23562;DHT22;11959;49.418;8.728;2023-11-19T01:41:26;9.80;99.90
23562;DHT22;11959;49.418;8.728;2023-11-19T01:43:52;9.70;99.90
23562;DHT22;11959;49.418;8.728;2023-11-19T01:46:18;9.80;99.90
23562;DHT22;11959;49.418;8.728;2023-11-19T01:48:46;9.80;99.90
23562;DHT22;11959;49.418;8.728;2023-11-19T01:51:15;9.80;99.90
23562;DHT22;11959;49.418;8.728;2023-11-19T01:53:43;9.80;99.90
23562;DHT22;11959;49.418;8.728;2023-11-19T01:56:09;9.90;99.90
23562;DHT22;11959;49.418;8.728;2023-11-19T01:58:37;9.90;99.90
23562;DHT22;11959;49.418;8.728;2023-11-19T02:01:07;9.90;99.90
23562;DHT22;11959;49.418;8.728;2023-11-19T02:03:34;9.80;99.90
23562;DHT22;11959;49.418;8.728;2023-11-19T02:06:00;9.90;99.90
23562;DHT22;11959;49.418;8.728;2023-11-19T02:08:26;10.00;99.90
23562;DHT22;11959;49.418;8.728;2023-11-19T02:10:52;10.00;99.90
23562;DHT22;11959;49.418;8.728;2023-11-19T02:13:18;9.90;99.90
23562;DHT22;11959;49.418;8.728;2023-11-19T02:15:44;10.00;99.90
23562;DHT22;11959;49.418;8.728;2023-11-19T02:18:26;10.00;99.90
23562;DHT22;11959;49.418;8.728;2023-11-19T02:20:56;10.00;99.90
23562;DHT22;11959;49.418;8.728;2023-11-19T02:23:22;10.10;99.90
23562;DHT22;11959;49.418;8.728;2023-11-19T02:25:55;10.10;99.90
23562;DHT22;11959;49.418;8.728;2023-11-19T02:28:23;10.10;99.90
23562;DHT22;11959;49.418;8.728;2023-11-19T02:30:49;10.10;99.90
23562;DHT22;11959;49.418;8.728;2023-11-19T02:33:14;10.10;99.90
23562;DHT22;11959;49.418;8.728;2023-11-19T02:35:40;10.20;99.90
23562;DHT22;11959;49.418;8.728;2023-11-19T02:38:06;10.20;99.90
23562;DHT22;11959;49.418;8.728;2023-11-19T02:40:32;10.10;99.90
23562;DHT22;11959;49.418;8.728;2023-11-19T02:42:58;10.10;99.90
23562;DHT22;11959;49.418;8.728;2023-11-19T02:45:25;10.20;99.90
23562;DHT22;11959;49.418;8.728;2023-11-19T02:47:51;10.20;99.90
23562;DHT22;11959;49.418;8.728;2023-11-19T02:50:18;10.20;99.90
23562;DHT22;11959;49.418;8.728;2023-11-19T02:52:52;10.20;99.90
23562;DHT22;11959;49.418;8.728;2023-11-19T02:55:19;10.30;99.90
23562;DHT22;11959;49.418;8.728;2023-11-19T02:57:45;10.30;99.90
23562;DHT22;11959;49.418;8.728;2023-11-19T03:00:15;10.30;99.90
23562;DHT22;11959;49.418;8.728;2023-11-19T03:02:41;10.30;99.90
23562;DHT22;11959;49.418;8.728;2023-11-19T03:05:15;10.30;99.90
23562;DHT22;11959;49.418;8.728;2023-11-19T03:07:42;10.30;99.90
23562;DHT22;11959;49.418;8.728;2023-11-19T03:10:09;10.40;99.90
23562;DHT22;11959;49.418;8.728;2023-11-19T03:12:41;10.40;99.90
23562;DHT22;11959;49.418;8.728;2023-11-19T03:15:08;10.40;99.90
23562;DHT22;11959;49.418;8.728;2023-11-19T03:17:41;10.40;99.90
23562;DHT22;11959;49.418;8.728;2023-11-19T03:20:09;10.40;99.90
23562;DHT22;11959;49.418;8.728;2023-11-19T03:22:39;10.40;99.90
23562;DHT22;11959;49.418;8.728;2023-11-19T03:25:07;10.40;99.90
23562;DHT22;11959;49.418;8.728;2023-11-19T03:27:37;10.40;99.90
23562;DHT22;11959;49.418;8.728;2023-11-19T03:30:05;10.40;99.90
23562;DHT22;11959;49.418;8.728;2023-11-19T03:32:33;10.40;99.90
23562;DHT22;11959;49.418;8.728;2023-11-19T03:35:01;10.50;99.90
23562;DHT22;11959;49.418;8.728;2023-11-19T03:37:27;10.50;99.90
23562;DHT22;11959;49.418;8.728;2023-11-19T03:39:54;10.50;99.90
23562;DHT22;11959;49.418;8.728;2023-11-19T03:42:20;10.50;99.90
23562;DHT22;11959;49.418;8.728;2023-11-19T03:44:46;10.50;99.90
23562;DHT22;11959;49.418;8.728;2023-11-19T03:47:12;10.60;99.90
23562;DHT22;11959;49.418;8.728;2023-11-19T03:49:37;10.60;99.90
23562;DHT22;11959;49.418;8.728;2023-11-19T03:52:03;10.70;99.90
23562;DHT22;11959;49.418;8.728;2023-11-19T03:54:31;10.70;99.90
23562;DHT22;11959;49.418;8.728;2023-11-19T03:56:58;10.70;99.90
23562;DHT22;11959;49.418;8.728;2023-11-19T03:59:25;10.70;99.90
23562;DHT22;11959;49.418;8.728;2023-11-19T04:01:51;10.70;99.90
23562;DHT22;11959;49.418;8.728;2023-11-19T04:04:19;10.70;99.90
23562;DHT22;11959;49.418;8.728;2023-11-19T04:06:44;10.80;99.90
23562;DHT22;11959;49.418;8.728;2023-11-19T04:09:10;10.70;99.90
23562;DHT22;11959;49.418;8.728;2023-11-19T04:11:36;10.70;99.90
23562;DHT22;11959;49.418;8.728;2023-11-19T04:14:01;10.70;99.90
23562;DHT22;11959;49.418;8.728;2023-11-19T04:16:27;10.70;99.90
23562;DHT22;11959;49.418;8.728;2023-11-19T04:18:56;10.70;99.90
23562;DHT22;11959;49.418;8.728;2023-11-19T04:21:21;10.80;99.90
23562;DHT22;11959;49.418;8.728;2023-11-19T04:23:49;10.70;99.90
23562;DHT22;11959;49.418;8.728;2023-11-19T04:26:14;10.70;99.90
23562;DHT22;11959;49.418;8.728;2023-11-19T04:28:41;10.70;99.90
23562;DHT22;11959;49.418;8.728;2023-11-19T04:31:06;10.70;99.90
23562;DHT22;11959;49.418;8.728;2023-11-19T04:33:33;10.80;99.90
23562;DHT22;11959;49.418;8.728;2023-11-19T04:35:58;10.70;99.90
23562;DHT22;11959;49.418;8.728;2023-11-19T04:38:24;10.80;99.90
23562;DHT22;11959;49.418;8.728;2023-11-19T04:40:52;10.90;99.90
23562;DHT22;11959;49.418;8.728;2023-11-19T04:43:17;10.90;99.90
23562;DHT22;11959;49.418;8.728;2023-11-19T04:45:43;10.90;99.90
23562;DHT22;11959;49.418;8.728;2023-11-19T04:48:09;10.90;99.90
23562;DHT22;11959;49.418;8.728;2023-11-19T04:50:35;10.90;99.90
23562;DHT22;11959;49.418;8.728;2023-11-19T04:53:00;11.00;99.90
23562;DHT22;11959;49.418;8.728;2023-11-19T04:55:26;11.00;99.90
23562;DHT22;11959;49.418;8.728;2023-11-19T04:57:54;11.00;99.90
23562;DHT22;11959;49.418;8.728;2023-11-19T05:00:20;11.00;99.90
23562;DHT22;11959;49.418;8.728;2023-11-19T05:02:47;11.00;99.90
23562;DHT22;11959;49.418;8.728;2023-11-19T05:05:12;11.00;99.90
23562;DHT22;11959;49.418;8.728;2023-11-19T05:07:38;11.00;99.90
23562;DHT22;11959;49.418;8.728;2023-11-19T05:10:04;11.10;99.90
23562;DHT22;11959;49.418;8.728;2023-11-19T05:12:31;11.00;99.90
23562;DHT22;11959;49.418;8.728;2023-11-19T05:14:57;11.00;99.90
23562;DHT22;11959;49.418;8.728;2023-11-19T05:17:23;11.00;99.90
23562;DHT22;11959;49.418;8.728;2023-11-19T05:19:48;11.10;99.90
23562;DHT22;11959;49.418;8.728;2023-11-19T05:22:14;11.10;99.90
23562;DHT22;11959;49.418;8.728;2023-11-19T05:24:40;11.10;99.90
23562;DHT22;11959;49.418;8.728;2023-11-19T05:27:06;11.10;99.90
23562;DHT22;11959;49.418;8.728;2023-11-19T05:29:33;11.20;99.90
23562;DHT22;11959;49.418;8.728;2023-11-19T05:31:59;11.20;99.90
23562;DHT22;11959;49.418;8.728;2023-11-19T05:34:25;11.30;99.90
23562;DHT22;11959;49.418;8.728;2023-11-19T05:36:50;11.30;99.90
23562;DHT22;11959;49.418;8.728;2023-11-19T05:39:17;11.30;99.90
23562;DHT22;11959;49.418;8.728;2023-11-19T05:41:44;11.30;99.90
23562;DHT22;11959;49.418;8.728;2023-11-19T05:44:09;11.30;99.90
23562;DHT22;11959;49.418;8.728;2023-11-19T05:46:35;11.30;99.90
23562;DHT22;11959;49.418;8.728;2023-11-19T05:49:05;11.30;99.90
23562;DHT22;11959;49.418;8.728;2023-11-19T05:51:31;11.30;99.90
23562;DHT22;11959;49.418;8.728;2023-11-19T05:53:57;11.30;99.90
23562;DHT22;11959;49.418;8.728;2023-11-19T05:56:23;11.30;99.90
23562;DHT22;11959;49.418;8.728;2023-11-19T05:58:48;11.30;99.90
23562;DHT22;11959;49.418;8.728;2023-11-19T06:01:17;11.30;99.90
23562;DHT22;11959;49.418;8.728;2023-11-19T06:03:43;11.30;99.90
23562;DHT22;11959;49.418;8.728;2023-11-19T06:06:08;11.30;99.90
23562;DHT22;11959;49.418;8.728;2023-11-19T06:08:35;11.40;99.90
23562;DHT22;11959;49.418;8.728;2023-11-19T06:11:01;11.40;99.90
23562;DHT22;11959;49.418;8.728;2023-11-19T06:13:26;11.30;99.90
23562;DHT22;11959;49.418;8.728;2023-11-19T06:15:52;11.40;99.90
23562;DHT22;11959;49.418;8.728;2023-11-19T06:18:18;11.40;99.90
23562;DHT22;11959;49.418;8.728;2023-11-19T06:20:45;11.40;99.90
23562;DHT22;11959;49.418;8.728;2023-11-19T06:23:11;11.40;99.90
23562;DHT22;11959;49.418;8.728;2023-11-19T06:25:36;11.40;99.90
23562;DHT22;11959;49.418;8.728;2023-11-19T06:28:03;11.40;99.90
23562;DHT22;11959;49.418;8.728;2023-11-19T06:30:28;11.50;99.90
23562;DHT22;11959;49.418;8.728;2023-11-19T06:32:56;11.50;99.90
23562;DHT22;11959;49.418;8.728;2023-11-19T06:35:21;11.50;99.90
23562;DHT22;11959;49.418;8.728;2023-11-19T06:37:47;11.50;99.90
23562;DHT22;11959;49.418;8.728;2023-11-19T06:40:13;11.60;99.90
23562;DHT22;11959;49.418;8.728;2023-11-19T06:42:41;11.60;99.90
23562;DHT22;11959;49.418;8.728;2023-11-19T06:45:07;11.60;99.90
23562;DHT22;11959;49.418;8.728;2023-11-19T06:47:32;11.60;99.90
23562;DHT22;11959;49.418;8.728;2023-11-19T06:49:58;11.60;99.90
23562;DHT22;11959;49.418;8.728;2023-11-19T06:52:24;11.60;99.90
23562;DHT22;11959;49.418;8.728;2023-11-19T06:54:50;11.70;99.90
23562;DHT22;11959;49.418;8.728;2023-11-19T06:57:16;11.70;99.90
23562;DHT22;11959;49.418;8.728;2023-11-19T06:59:42;11.70;99.90
23562;DHT22;11959;49.418;8.728;2023-11-19T07:02:08;11.80;99.90
23562;DHT22;11959;49.418;8.728;2023-11-19T07:04:34;11.90;99.90
23562;DHT22;11959;49.418;8.728;2023-11-19T07:07:00;11.90;99.90
23562;DHT22;11959;49.418;8.728;2023-11-19T07:09:26;11.90;99.90
23562;DHT22;11959;49.418;8.728;2023-11-19T07:11:52;11.90;99.90
23562;DHT22;11959;49.418;8.728;2023-11-19T07:14:19;11.90;99.90
23562;DHT22;11959;49.418;8.728;2023-11-19T07:16:44;11.90;99.90
23562;DHT22;11959;49.418;8.728;2023-11-19T07:19:11;12.00;99.90
23562;DHT22;11959;49.418;8.728;2023-11-19T07:21:37;11.90;99.90
23562;DHT22;11959;49.418;8.728;2023-11-19T07:24:05;12.00;99.90
23562;DHT22;11959;49.418;8.728;2023-11-19T07:26:31;12.00;99.90
23562;DHT22;11959;49.418;8.728;2023-11-19T07:28:57;12.00;99.90
23562;DHT22;11959;49.418;8.728;2023-11-19T07:31:23;12.00;99.90
23562;DHT22;11959;49.418;8.728;2023-11-19T07:33:49;12.00;99.90
23562;DHT22;11959;49.418;8.728;2023-11-19T07:36:15;12.10;99.90
23562;DHT22;11959;49.418;8.728;2023-11-19T07:38:41;12.10;99.90
23562;DHT22;11959;49.418;8.728;2023-11-19T07:41:08;12.10;99.90
23562;DHT22;11959;49.418;8.728;2023-11-19T07:43:42;12.10;99.90
23562;DHT22;11959;49.418;8.728;2023-11-19T07:46:12;12.10;99.90
23562;DHT22;11959;49.418;8.728;2023-11-19T07:48:40;12.10;99.90
23562;DHT22;11959;49.418;8.728;2023-11-19T07:51:08;12.10;99.90
23562;DHT22;11959;49.418;8.728;2023-11-19T07:53:33;12.10;99.90
23562;DHT22;11959;49.418;8.728;2023-11-19T07:56:00;12.10;99.90
23562;DHT22;11959;49.418;8.728;2023-11-19T07:58:25;12.10;99.90
23562;DHT22;11959;49.418;8.728;2023-11-19T08:00:51;12.10;99.90
23562;DHT22;11959;49.418;8.728;2023-11-19T08:03:17;12.10;99.90
23562;DHT22;11959;49.418;8.728;2023-11-19T08:05:44;12.20;99.90
23562;DHT22;11959;49.418;8.728;2023-11-19T08:08:11;12.20;99.90
23562;DHT22;11959;49.418;8.728;2023-11-19T08:10:37;12.10;99.90
23562;DHT22;11959;49.418;8.728;2023-11-19T08:13:03;12.10;99.90
23562;DHT22;11959;49.418;8.728;2023-11-19T08:15:29;12.10;99.90
23562;DHT22;11959;49.418;8.728;2023-11-19T08:17:54;12.20;99.90
23562;DHT22;11959;49.418;8.728;2023-11-19T08:20:20;12.10;99.90
23562;DHT22;11959;49.418;8.728;2023-11-19T08:22:46;12.20;99.90
23562;DHT22;11959;49.418;8.728;2023-11-19T08:25:11;12.20;99.90
23562;DHT22;11959;49.418;8.728;2023-11-19T08:27:37;12.20;99.90
23562;DHT22;11959;49.418;8.728;2023-11-19T08:30:03;12.20;99.90
23562;DHT22;11959;49.418;8.728;2023-11-19T08:32:29;12.10;99.90
23562;DHT22;11959;49.418;8.728;2023-11-19T08:34:55;12.20;99.90
23562;DHT22;11959;49.418;8.728;2023-11-19T08:37:21;12.20;99.90
23562;DHT22;11959;49.418;8.728;2023-11-19T08:39:48;12.20;99.90
23562;DHT22;11959;49.418;8.728;2023-11-19T08:42:14;12.30;99.90
23562;DHT22;11959;49.418;8.728;2023-11-19T08:44:39;12.30;99.90
23562;DHT22;11959;49.418;8.728;2023-11-19T08:47:09;12.30;99.90
23562;DHT22;11959;49.418;8.728;2023-11-19T08:49:35;12.40;99.90
23562;DHT22;11959;49.418;8.728;2023-11-19T08:52:00;12.40;99.90
23562;DHT22;11959;49.418;8.728;2023-11-19T08:54:26;12.50;99.90
23562;DHT22;11959;49.418;8.728;2023-11-19T08:56:52;12.50;99.90
23562;DHT22;11959;49.418;8.728;2023-11-19T08:59:17;12.60;99.90
23562;DHT22;11959;49.418;8.728;2023-11-19T09:01:44;12.60;99.90
23562;DHT22;11959;49.418;8.728;2023-11-19T09:04:11;12.70;99.90
23562;DHT22;11959;49.418;8.728;2023-11-19T09:06:36;12.80;99.90
23562;DHT22;11959;49.418;8.728;2023-11-19T09:09:02;12.80;99.90
23562;DHT22;11959;49.418;8.728;2023-11-19T09:11:29;12.80;99.90
23562;DHT22;11959;49.418;8.728;2023-11-19T09:13:55;12.80;99.90
23562;DHT22;11959;49.418;8.728;2023-11-19T09:16:21;12.80;99.90
23562;DHT22;11959;49.418;8.728;2023-11-19T09:18:47;12.80;99.90
23562;DHT22;11959;49.418;8.728;2023-11-19T09:21:12;12.80;99.90
23562;DHT22;11959;49.418;8.728;2023-11-19T09:23:38;12.80;99.90
23562;DHT22;11959;49.418;8.728;2023-11-19T09:26:08;12.80;99.90
23562;DHT22;11959;49.418;8.728;2023-11-19T09:28:35;12.70;99.90
23562;DHT22;11959;49.418;8.728;2023-11-19T09:31:01;12.70;99.90
23562;DHT22;11959;49.418;8.728;2023-11-19T09:33:30;12.70;99.90
23562;DHT22;11959;49.418;8.728;2023-11-19T09:35:59;12.70;99.90
23562;DHT22;11959;49.418;8.728;2023-11-19T09:38:25;12.80;99.90
23562;DHT22;11959;49.418;8.728;2023-11-19T09:40:51;12.80;99.90
23562;DHT22;11959;49.418;8.728;2023-11-19T09:43:17;12.90;99.90
23562;DHT22;11959;49.418;8.728;2023-11-19T09:45:50;12.90;99.90
23562;DHT22;11959;49.418;8.728;2023-11-19T09:48:19;13.00;99.90
23562;DHT22;11959;49.418;8.728;2023-11-19T09:50:48;13.00;99.90
23562;DHT22;11959;49.418;8.728;2023-11-19T09:53:15;13.10;99.90
23562;DHT22;11959;49.418;8.728;2023-11-19T09:55:41;13.10;99.90
23562;DHT22;11959;49.418;8.728;2023-11-19T09:58:07;13.00;99.90
23562;DHT22;11959;49.418;8.728;2023-11-19T10:00:33;13.00;99.90
23562;DHT22;11959;49.418;8.728;2023-11-19T10:03:00;13.00;99.90
23562;DHT22;11959;49.418;8.728;2023-11-19T10:05:26;13.00;99.90
23562;DHT22;11959;49.418;8.728;2023-11-19T10:07:52;13.00;99.90
23562;DHT22;11959;49.418;8.728;2023-11-19T10:10:18;13.00;99.90
23562;DHT22;11959;49.418;8.728;2023-11-19T10:12:45;12.90;99.90
23562;DHT22;11959;49.418;8.728;2023-11-19T10:15:19;12.90;99.90
23562;DHT22;11959;49.418;8.728;2023-11-19T10:17:46;12.90;99.90
23562;DHT22;11959;49.418;8.728;2023-11-19T10:20:12;12.90;99.90
23562;DHT22;11959;49.418;8.728;2023-11-19T10:22:37;12.90;99.90
23562;DHT22;11959;49.418;8.728;2023-11-19T10:25:04;12.90;99.90
23562;DHT22;11959;49.418;8.728;2023-11-19T10:27:30;13.00;99.90
23562;DHT22;11959;49.418;8.728;2023-11-19T10:29:59;13.10;99.90
23562;DHT22;11959;49.418;8.728;2023-11-19T10:32:25;13.10;99.90
23562;DHT22;11959;49.418;8.728;2023-11-19T10:34:51;13.20;99.90
23562;DHT22;11959;49.418;8.728;2023-11-19T10:37:29;13.40;99.90
23562;DHT22;11959;49.418;8.728;2023-11-19T10:39:58;13.40;99.90
23562;DHT22;11959;49.418;8.728;2023-11-19T10:42:23;13.50;99.90
23562;DHT22;11959;49.418;8.728;2023-11-19T10:44:49;13.50;99.90
23562;DHT22;11959;49.418;8.728;2023-11-19T10:47:15;13.50;99.90
23562;DHT22;11959;49.418;8.728;2023-11-19T10:49:44;13.60;99.90
23562;DHT22;11959;49.418;8.728;2023-11-19T10:52:12;13.60;99.90
23562;DHT22;11959;49.418;8.728;2023-11-19T10:54:43;13.70;99.90
23562;DHT22;11959;49.418;8.728;2023-11-19T10:57:12;13.70;99.90
23562;DHT22;11959;49.418;8.728;2023-11-19T10:59:42;13.70;99.90
23562;DHT22;11959;49.418;8.728;2023-11-19T11:02:10;13.80;99.90
23562;DHT22;11959;49.418;8.728;2023-11-19T11:04:40;13.90;99.90
23562;DHT22;11959;49.418;8.728;2023-11-19T11:07:08;13.90;99.90
23562;DHT22;11959;49.418;8.728;2023-11-19T11:09:34;13.90;99.90
23562;DHT22;11959;49.418;8.728;2023-11-19T11:12:01;13.80;99.90
23562;DHT22;11959;49.418;8.728;2023-11-19T11:14:29;13.80;99.90
23562;DHT22;11959;49.418;8.728;2023-11-19T11:16:56;13.70;99.90
23562;DHT22;11959;49.418;8.728;2023-11-19T11:19:23;13.70;99.90
23562;DHT22;11959;49.418;8.728;2023-11-19T11:21:54;13.70;99.90
23562;DHT22;11959;49.418;8.728;2023-11-19T11:32:49;13.70;99.90
23562;DHT22;11959;49.418;8.728;2023-11-19T11:38:09;13.70;99.90
23562;DHT22;11959;49.418;8.728;2023-11-19T11:40:35;13.60;99.90
23562;DHT22;11959;49.418;8.728;2023-11-19T11:43:02;13.70;99.90
23562;DHT22;11959;49.418;8.728;2023-11-19T11:45:46;13.70;99.90
23562;DHT22;11959;49.418;8.728;2023-11-19T11:48:16;13.70;99.90
23562;DHT22;11959;49.418;8.728;2023-11-19T11:50:53;13.70;99.90
23562;DHT22;11959;49.418;8.728;2023-11-19T11:53:20;13.80;99.90
23562;DHT22;11959;49.418;8.728;2023-11-19T11:58:21;13.90;99.90
23562;DHT22;11959;49.418;8.728;2023-11-19T12:00:48;13.90;99.90
23562;DHT22;11959;49.418;8.728;2023-11-19T12:03:14;13.90;99.90
23562;DHT22;11959;49.418;8.728;2023-11-19T12:05:45;14.00;99.90
23562;DHT22;11959;49.418;8.728;2023-11-19T12:08:12;14.00;99.90
23562;DHT22;11959;49.418;8.728;2023-11-19T12:10:50;14.10;99.90
23562;DHT22;11959;49.418;8.728;2023-11-19T12:13:17;14.10;99.90
23562;DHT22;11959;49.418;8.728;2023-11-19T12:18:28;14.30;99.90
23562;DHT22;11959;49.418;8.728;2023-11-19T12:20:54;14.30;99.90
23562;DHT22;11959;49.418;8.728;2023-11-19T12:23:20;14.30;99.90
23562;DHT22;11959;49.418;8.728;2023-11-19T12:25:46;14.20;99.90
23562;DHT22;11959;49.418;8.728;2023-11-19T12:28:13;14.20;99.90
23562;DHT22;11959;49.418;8.728;2023-11-19T12:30:39;14.20;99.90
23562;DHT22;11959;49.418;8.728;2023-11-19T12:33:09;14.20;99.90
23562;DHT22;11959;49.418;8.728;2023-11-19T12:35:39;14.20;99.90
23562;DHT22;11959;49.418;8.728;2023-11-19T12:38:05;14.20;99.90
23562;DHT22;11959;49.418;8.728;2023-11-19T12:40:31;14.30;99.90
23562;DHT22;11959;49.418;8.728;2023-11-19T12:42:57;14.20;99.90
23562;DHT22;11959;49.418;8.728;2023-11-19T12:45:24;14.20;99.90
23562;DHT22;11959;49.418;8.728;2023-11-19T12:47:50;14.30;99.90
23562;DHT22;11959;49.418;8.728;2023-11-19T12:50:17;14.30;99.90
23562;DHT22;11959;49.418;8.728;2023-11-19T12:52:55;14.40;99.90
23562;DHT22;11959;49.418;8.728;2023-11-19T12:55:29;14.40;99.90
23562;DHT22;11959;49.418;8.728;2023-11-19T12:57:55;14.50;99.90
23562;DHT22;11959;49.418;8.728;2023-11-19T13:00:22;14.50;99.90
23562;DHT22;11959;49.418;8.728;2023-11-19T13:02:50;14.60;99.90
23562;DHT22;11959;49.418;8.728;2023-11-19T13:05:30;14.60;99.90
23562;DHT22;11959;49.418;8.728;2023-11-19T13:08:07;14.70;99.90
23562;DHT22;11959;49.418;8.728;2023-11-19T13:13:19;14.80;99.90
23562;DHT22;11959;49.418;8.728;2023-11-19T13:15:44;14.70;99.90
23562;DHT22;11959;49.418;8.728;2023-11-19T13:18:11;14.70;99.90
23562;DHT22;11959;49.418;8.728;2023-11-19T13:20:37;14.70;99.90
23562;DHT22;11959;49.418;8.728;2023-11-19T13:23:05;14.70;99.90
23562;DHT22;11959;49.418;8.728;2023-11-19T13:25:31;14.60;99.90
23562;DHT22;11959;49.418;8.728;2023-11-19T13:27:59;14.50;99.90
23562;DHT22;11959;49.418;8.728;2023-11-19T13:30:26;14.50;99.90
23562;DHT22;11959;49.418;8.728;2023-11-19T13:32:52;14.50;99.90
23562;DHT22;11959;49.418;8.728;2023-11-19T13:35:21;14.50;99.90
23562;DHT22;11959;49.418;8.728;2023-11-19T13:37:47;14.50;99.90
23562;DHT22;11959;49.418;8.728;2023-11-19T13:40:13;14.50;99.90
23562;DHT22;11959;49.418;8.728;2023-11-19T13:42:44;14.50;99.90
23562;DHT22;11959;49.418;8.728;2023-11-19T13:45:11;14.50;99.90
23562;DHT22;11959;49.418;8.728;2023-11-19T13:47:41;14.60;99.90
23562;DHT22;11959;49.418;8.728;2023-11-19T13:50:14;14.60;99.90
23562;DHT22;11959;49.418;8.728;2023-11-19T13:52:41;14.60;99.90
23562;DHT22;11959;49.418;8.728;2023-11-19T13:55:09;14.60;99.90
23562;DHT22;11959;49.418;8.728;2023-11-19T13:57:35;14.60;99.90
23562;DHT22;11959;49.418;8.728;2023-11-19T14:00:03;14.60;99.90
23562;DHT22;11959;49.418;8.728;2023-11-19T14:02:35;14.60;99.90
23562;DHT22;11959;49.418;8.728;2023-11-19T14:05:01;14.50;99.90
23562;DHT22;11959;49.418;8.728;2023-11-19T14:07:27;14.50;99.90
23562;DHT22;11959;49.418;8.728;2023-11-19T14:09:53;14.40;99.90
23562;DHT22;11959;49.418;8.728;2023-11-19T14:12:19;14.30;99.90
23562;DHT22;11959;49.418;8.728;2023-11-19T14:14:45;14.30;99.90
23562;DHT22;11959;49.418;8.728;2023-11-19T14:17:11;14.20;99.90
23562;DHT22;11959;49.418;8.728;2023-11-19T14:19:37;14.20;99.90
23562;DHT22;11959;49.418;8.728;2023-11-19T14:22:04;14.20;99.90
23562;DHT22;11959;49.418;8.728;2023-11-19T14:24:30;14.10;99.90
23562;DHT22;11959;49.418;8.728;2023-11-19T14:26:56;14.20;99.90
23562;DHT22;11959;49.418;8.728;2023-11-19T14:29:24;14.10;99.90
23562;DHT22;11959;49.418;8.728;2023-11-19T14:31:51;14.10;99.90
23562;DHT22;11959;49.418;8.728;2023-11-19T14:34:18;14.00;99.90
23562;DHT22;11959;49.418;8.728;2023-11-19T14:36:44;14.00;99.90
23562;DHT22;11959;49.418;8.728;2023-11-19T14:39:10;14.00;99.90
23562;DHT22;11959;49.418;8.728;2023-11-19T14:41:36;14.00;99.90
23562;DHT22;11959;49.418;8.728;2023-11-19T14:44:01;14.00;99.90
23562;DHT22;11959;49.418;8.728;2023-11-19T14:46:29;13.90;99.90
23562;DHT22;11959;49.418;8.728;2023-11-19T14:48:54;13.90;99.90
23562;DHT22;11959;49.418;8.728;2023-11-19T14:51:20;14.00;99.90
23562;DHT22;11959;49.418;8.728;2023-11-19T14:53:46;14.00;99.90
23562;DHT22;11959;49.418;8.728;2023-11-19T14:56:12;14.00;99.90
23562;DHT22;11959;49.418;8.728;2023-11-19T14:58:39;14.00;99.90
23562;DHT22;11959;49.418;8.728;2023-11-19T15:01:05;14.00;99.90
23562;DHT22;11959;49.418;8.728;2023-11-19T15:03:31;14.00;99.90
23562;DHT22;11959;49.418;8.728;2023-11-19T15:05:56;13.90;99.90
23562;DHT22;11959;49.418;8.728;2023-11-19T15:08:22;13.90;99.90
23562;DHT22;11959;49.418;8.728;2023-11-19T15:10:48;13.80;99.90
23562;DHT22;11959;49.418;8.728;2023-11-19T15:13:13;13.80;99.90
23562;DHT22;11959;49.418;8.728;2023-11-19T15:15:39;13.80;99.90
23562;DHT22;11959;49.418;8.728;2023-11-19T15:18:05;13.80;99.90
23562;DHT22;11959;49.418;8.728;2023-11-19T15:20:31;13.80;99.90
23562;DHT22;11959;49.418;8.728;2023-11-19T15:22:57;13.70;99.90
23562;DHT22;11959;49.418;8.728;2023-11-19T15:25:23;13.70;99.90
23562;DHT22;11959;49.418;8.728;2023-11-19T15:27:50;13.70;99.90
23562;DHT22;11959;49.418;8.728;2023-11-19T15:30:15;13.60;99.90
23562;DHT22;11959;49.418;8.728;2023-11-19T15:32:42;13.60;99.90
23562;DHT22;11959;49.418;8.728;2023-11-19T15:35:09;13.50;99.90
23562;DHT22;11959;49.418;8.728;2023-11-19T15:37:38;13.50;99.90
23562;DHT22;11959;49.418;8.728;2023-11-19T15:40:08;13.50;99.90
23562;DHT22;11959;49.418;8.728;2023-11-19T15:42:35;13.40;99.90
23562;DHT22;11959;49.418;8.728;2023-11-19T15:45:01;13.40;99.90
23562;DHT22;11959;49.418;8.728;2023-11-19T15:47:30;13.50;99.90
23562;DHT22;11959;49.418;8.728;2023-11-19T15:49:56;13.50;99.90